sensor_id;sensor_type;location;lat;lon;timestamp;P1;durP1;ratioP1;P2;durP2;ratioP2
1106;SDS011;540;49.448;8.612;2023-08-17T00:01:03;3.55;;;1.00;;
1106;SDS011;540;49.448;8.612;2023-08-17T00:03:31;1.95;;;1.20;;
1106;SDS011;540;49.448;8.612;2023-08-17T00:05:59;1.30;;;0.90;;
1106;SDS011;540;49.448;8.612;2023-08-17T00:08:27;1.52;;;1.10;;
1106;SDS011;540;49.448;8.612;2023-08-17T00:10:55;3.35;;;1.17;;
1106;SDS011;540;49.448;8.612;2023-08-17T00:13:22;1.55;;;1.00;;
1106;SDS011;540;49.448;8.612;2023-08-17T00:15:51;1.65;;;1.10;;
1106;SDS011;540;49.448;8.612;2023-08-17T00:18:19;1.55;;;1.05;;
1106;SDS011;540;49.448;8.612;2023-08-17T00:20:47;1.95;;;1.10;;
1106;SDS011;540;49.448;8.612;2023-08-17T00:23:15;1.90;;;1.13;;
1106;SDS011;540;49.448;8.612;2023-08-17T00:25:43;1.33;;;1.00;;
1106;SDS011;540;49.448;8.612;2023-08-17T00:28:11;1.75;;;0.93;;
1106;SDS011;540;49.448;8.612;2023-08-17T00:30:39;2.08;;;1.00;;
1106;SDS011;540;49.448;8.612;2023-08-17T00:33:08;1.65;;;1.27;;
1106;SDS011;540;49.448;8.612;2023-08-17T00:35:36;1.75;;;1.08;;
1106;SDS011;540;49.448;8.612;2023-08-17T00:38:04;2.97;;;1.45;;
1106;SDS011;540;49.448;8.612;2023-08-17T00:40:32;1.85;;;1.45;;
1106;SDS011;540;49.448;8.612;2023-08-17T00:43:00;7.18;;;2.05;;
1106;SDS011;540;49.448;8.612;2023-08-17T00:45:28;3.50;;;1.27;;
1106;SDS011;540;49.448;8.612;2023-08-17T00:47:56;3.00;;;1.10;;
1106;SDS011;540;49.448;8.612;2023-08-17T00:50:27;2.33;;;1.60;;
1106;SDS011;540;49.448;8.612;2023-08-17T00:52:56;1.60;;;1.20;;
1106;SDS011;540;49.448;8.612;2023-08-17T00:55:24;2.03;;;1.20;;
1106;SDS011;540;49.448;8.612;2023-08-17T00:57:52;2.75;;;1.27;;
1106;SDS011;540;49.448;8.612;2023-08-17T01:00:22;2.40;;;1.13;;
1106;SDS011;540;49.448;8.612;2023-08-17T01:02:53;3.20;;;1.45;;
1106;SDS011;540;49.448;8.612;2023-08-17T01:05:22;2.55;;;1.85;;
1106;SDS011;540;49.448;8.612;2023-08-17T01:07:52;1.42;;;1.27;;
1106;SDS011;540;49.448;8.612;2023-08-17T01:10:20;3.13;;;1.60;;
1106;SDS011;540;49.448;8.612;2023-08-17T01:12:49;2.55;;;1.60;;
1106;SDS011;540;49.448;8.612;2023-08-17T01:15:24;2.13;;;1.40;;
1106;SDS011;540;49.448;8.612;2023-08-17T01:18:00;1.95;;;1.30;;
1106;SDS011;540;49.448;8.612;2023-08-17T01:20:38;2.38;;;1.40;;
1106;SDS011;540;49.448;8.612;2023-08-17T01:23:07;2.28;;;1.67;;
1106;SDS011;540;49.448;8.612;2023-08-17T01:25:35;3.78;;;1.92;;
1106;SDS011;540;49.448;8.612;2023-08-17T01:28:03;2.38;;;1.48;;
1106;SDS011;540;49.448;8.612;2023-08-17T01:30:33;4.70;;;1.90;;
1106;SDS011;540;49.448;8.612;2023-08-17T01:33:07;1.70;;;1.48;;
1106;SDS011;540;49.448;8.612;2023-08-17T01:35:37;2.67;;;1.80;;
1106;SDS011;540;49.448;8.612;2023-08-17T01:38:12;3.33;;;1.67;;
1106;SDS011;540;49.448;8.612;2023-08-17T01:40:44;4.05;;;1.40;;
1106;SDS011;540;49.448;8.612;2023-08-17T01:43:14;2.05;;;1.52;;
1106;SDS011;540;49.448;8.612;2023-08-17T01:45:44;7.88;;;1.25;;
1106;SDS011;540;49.448;8.612;2023-08-17T01:48:11;2.50;;;1.52;;
1106;SDS011;540;49.448;8.612;2023-08-17T01:50:39;2.20;;;1.60;;
1106;SDS011;540;49.448;8.612;2023-08-17T01:53:07;1.25;;;1.10;;
1106;SDS011;540;49.448;8.612;2023-08-17T01:55:37;2.10;;;1.30;;
1106;SDS011;540;49.448;8.612;2023-08-17T01:58:05;2.85;;;1.42;;
1106;SDS011;540;49.448;8.612;2023-08-17T02:00:32;3.50;;;1.40;;
1106;SDS011;540;49.448;8.612;2023-08-17T02:03:00;2.92;;;1.25;;
1106;SDS011;540;49.448;8.612;2023-08-17T02:05:28;2.85;;;1.70;;
1106;SDS011;540;49.448;8.612;2023-08-17T02:07:56;2.67;;;1.70;;
1106;SDS011;540;49.448;8.612;2023-08-17T02:10:24;5.20;;;1.95;;
1106;SDS011;540;49.448;8.612;2023-08-17T02:12:53;3.42;;;1.70;;
1106;SDS011;540;49.448;8.612;2023-08-17T02:15:30;2.80;;;1.83;;
1106;SDS011;540;49.448;8.612;2023-08-17T02:17:59;6.45;;;2.40;;
1106;SDS011;540;49.448;8.612;2023-08-17T02:20:28;3.72;;;2.10;;
1106;SDS011;540;49.448;8.612;2023-08-17T02:22:56;2.13;;;1.80;;
1106;SDS011;540;49.448;8.612;2023-08-17T02:25:23;2.88;;;2.00;;
1106;SDS011;540;49.448;8.612;2023-08-17T02:27:52;4.40;;;1.88;;
1106;SDS011;540;49.448;8.612;2023-08-17T02:30:20;3.22;;;1.80;;
1106;SDS011;540;49.448;8.612;2023-08-17T02:32:48;2.35;;;1.52;;
1106;SDS011;540;49.448;8.612;2023-08-17T02:35:16;4.53;;;1.65;;
1106;SDS011;540;49.448;8.612;2023-08-17T02:37:44;4.15;;;1.80;;
1106;SDS011;540;49.448;8.612;2023-08-17T02:40:11;3.85;;;1.58;;
1106;SDS011;540;49.448;8.612;2023-08-17T02:42:39;5.35;;;2.95;;
1106;SDS011;540;49.448;8.612;2023-08-17T02:45:09;3.00;;;1.55;;
1106;SDS011;540;49.448;8.612;2023-08-17T02:47:37;2.80;;;1.63;;
1106;SDS011;540;49.448;8.612;2023-08-17T02:50:05;1.77;;;1.50;;
1106;SDS011;540;49.448;8.612;2023-08-17T02:52:33;3.88;;;2.20;;
1106;SDS011;540;49.448;8.612;2023-08-17T02:55:01;5.20;;;1.70;;
1106;SDS011;540;49.448;8.612;2023-08-17T02:57:29;2.33;;;1.80;;
1106;SDS011;540;49.448;8.612;2023-08-17T02:59:57;3.35;;;1.98;;
1106;SDS011;540;49.448;8.612;2023-08-17T03:02:26;2.35;;;1.65;;
1106;SDS011;540;49.448;8.612;2023-08-17T03:04:54;4.20;;;1.73;;
1106;SDS011;540;49.448;8.612;2023-08-17T03:07:21;3.05;;;1.65;;
1106;SDS011;540;49.448;8.612;2023-08-17T03:09:50;4.93;;;1.50;;
1106;SDS011;540;49.448;8.612;2023-08-17T03:12:18;4.45;;;1.83;;
1106;SDS011;540;49.448;8.612;2023-08-17T03:14:45;2.10;;;1.40;;
1106;SDS011;540;49.448;8.612;2023-08-17T03:17:13;4.65;;;1.90;;
1106;SDS011;540;49.448;8.612;2023-08-17T03:19:42;4.18;;;1.83;;
1106;SDS011;540;49.448;8.612;2023-08-17T03:22:10;5.65;;;1.98;;
1106;SDS011;540;49.448;8.612;2023-08-17T03:24:38;3.03;;;1.92;;
1106;SDS011;540;49.448;8.612;2023-08-17T03:27:06;4.35;;;1.98;;
1106;SDS011;540;49.448;8.612;2023-08-17T03:29:33;3.38;;;1.85;;
1106;SDS011;540;49.448;8.612;2023-08-17T03:32:01;2.65;;;1.95;;
1106;SDS011;540;49.448;8.612;2023-08-17T03:34:29;9.05;;;4.40;;
1106;SDS011;540;49.448;8.612;2023-08-17T03:36:58;3.58;;;2.55;;
1106;SDS011;540;49.448;8.612;2023-08-17T03:39:26;4.63;;;2.45;;
1106;SDS011;540;49.448;8.612;2023-08-17T03:41:53;3.05;;;2.22;;
1106;SDS011;540;49.448;8.612;2023-08-17T03:44:21;3.53;;;2.30;;
1106;SDS011;540;49.448;8.612;2023-08-17T03:46:49;3.50;;;2.63;;
1106;SDS011;540;49.448;8.612;2023-08-17T03:49:17;6.03;;;2.88;;
1106;SDS011;540;49.448;8.612;2023-08-17T03:51:45;5.28;;;2.80;;
1106;SDS011;540;49.448;8.612;2023-08-17T03:54:14;5.43;;;2.65;;
1106;SDS011;540;49.448;8.612;2023-08-17T03:56:42;5.13;;;2.70;;
1106;SDS011;540;49.448;8.612;2023-08-17T03:59:10;4.22;;;3.15;;
1106;SDS011;540;49.448;8.612;2023-08-17T04:01:38;4.38;;;3.25;;
1106;SDS011;540;49.448;8.612;2023-08-17T04:04:05;8.32;;;3.58;;
1106;SDS011;540;49.448;8.612;2023-08-17T04:06:34;6.60;;;3.97;;
1106;SDS011;540;49.448;8.612;2023-08-17T04:09:02;6.40;;;4.28;;
1106;SDS011;540;49.448;8.612;2023-08-17T04:11:33;6.88;;;4.47;;
1106;SDS011;540;49.448;8.612;2023-08-17T04:14:02;6.68;;;4.80;;
1106;SDS011;540;49.448;8.612;2023-08-17T04:16:30;10.43;;;5.18;;
1106;SDS011;540;49.448;8.612;2023-08-17T04:18:59;7.07;;;4.47;;
1106;SDS011;540;49.448;8.612;2023-08-17T04:21:27;6.97;;;4.85;;
1106;SDS011;540;49.448;8.612;2023-08-17T04:23:55;8.15;;;4.75;;
1106;SDS011;540;49.448;8.612;2023-08-17T04:26:23;6.50;;;4.55;;
1106;SDS011;540;49.448;8.612;2023-08-17T04:28:52;10.57;;;4.70;;
1106;SDS011;540;49.448;8.612;2023-08-17T04:31:20;7.85;;;5.60;;
1106;SDS011;540;49.448;8.612;2023-08-17T04:33:48;9.57;;;6.78;;
1106;SDS011;540;49.448;8.612;2023-08-17T04:36:16;12.38;;;7.80;;
1106;SDS011;540;49.448;8.612;2023-08-17T04:38:43;11.05;;;5.72;;
1106;SDS011;540;49.448;8.612;2023-08-17T04:41:11;9.55;;;6.47;;
1106;SDS011;540;49.448;8.612;2023-08-17T04:43:39;9.35;;;6.70;;
1106;SDS011;540;49.448;8.612;2023-08-17T04:46:10;10.10;;;6.63;;
1106;SDS011;540;49.448;8.612;2023-08-17T04:48:38;11.68;;;7.88;;
1106;SDS011;540;49.448;8.612;2023-08-17T04:51:06;10.32;;;7.45;;
1106;SDS011;540;49.448;8.612;2023-08-17T04:53:34;15.32;;;8.70;;
1106;SDS011;540;49.448;8.612;2023-08-17T04:56:02;11.80;;;8.95;;
1106;SDS011;540;49.448;8.612;2023-08-17T04:58:30;12.50;;;8.43;;
1106;SDS011;540;49.448;8.612;2023-08-17T05:00:58;13.60;;;7.72;;
1106;SDS011;540;49.448;8.612;2023-08-17T05:03:29;11.45;;;7.47;;
1106;SDS011;540;49.448;8.612;2023-08-17T05:05:59;11.25;;;7.30;;
1106;SDS011;540;49.448;8.612;2023-08-17T05:08:27;11.63;;;7.47;;
1106;SDS011;540;49.448;8.612;2023-08-17T05:10:55;13.00;;;8.32;;
1106;SDS011;540;49.448;8.612;2023-08-17T05:13:23;15.70;;;8.23;;
1106;SDS011;540;49.448;8.612;2023-08-17T05:15:50;11.13;;;7.13;;
1106;SDS011;540;49.448;8.612;2023-08-17T05:18:19;10.50;;;7.18;;
1106;SDS011;540;49.448;8.612;2023-08-17T05:20:48;11.85;;;6.82;;
1106;SDS011;540;49.448;8.612;2023-08-17T05:23:16;11.43;;;8.15;;
1106;SDS011;540;49.448;8.612;2023-08-17T05:25:45;9.70;;;6.35;;
1106;SDS011;540;49.448;8.612;2023-08-17T05:28:14;8.88;;;6.18;;
1106;SDS011;540;49.448;8.612;2023-08-17T05:30:42;10.57;;;6.50;;
1106;SDS011;540;49.448;8.612;2023-08-17T05:33:10;11.85;;;8.25;;
1106;SDS011;540;49.448;8.612;2023-08-17T05:35:38;10.05;;;7.00;;
1106;SDS011;540;49.448;8.612;2023-08-17T05:38:07;9.05;;;6.07;;
1106;SDS011;540;49.448;8.612;2023-08-17T05:40:36;9.23;;;5.88;;
1106;SDS011;540;49.448;8.612;2023-08-17T05:43:03;8.60;;;6.00;;
1106;SDS011;540;49.448;8.612;2023-08-17T05:45:31;11.38;;;7.35;;
1106;SDS011;540;49.448;8.612;2023-08-17T05:48:03;15.75;;;8.73;;
1106;SDS011;540;49.448;8.612;2023-08-17T05:50:31;20.67;;;9.50;;
1106;SDS011;540;49.448;8.612;2023-08-17T05:53:00;18.90;;;9.15;;
1106;SDS011;540;49.448;8.612;2023-08-17T05:55:29;15.07;;;8.50;;
1106;SDS011;540;49.448;8.612;2023-08-17T05:57:56;13.55;;;8.18;;
1106;SDS011;540;49.448;8.612;2023-08-17T06:00:24;9.60;;;6.50;;
1106;SDS011;540;49.448;8.612;2023-08-17T06:02:52;14.73;;;9.20;;
1106;SDS011;540;49.448;8.612;2023-08-17T06:05:27;52.53;;;33.53;;
1106;SDS011;540;49.448;8.612;2023-08-17T06:07:55;72.82;;;51.17;;
1106;SDS011;540;49.448;8.612;2023-08-17T06:10:23;13.32;;;7.93;;
1106;SDS011;540;49.448;8.612;2023-08-17T06:12:53;17.70;;;9.75;;
1106;SDS011;540;49.448;8.612;2023-08-17T06:15:22;11.35;;;7.75;;
1106;SDS011;540;49.448;8.612;2023-08-17T06:17:50;10.50;;;6.75;;
1106;SDS011;540;49.448;8.612;2023-08-17T06:20:19;11.93;;;7.97;;
1106;SDS011;540;49.448;8.612;2023-08-17T06:22:47;16.50;;;8.35;;
1106;SDS011;540;49.448;8.612;2023-08-17T06:25:16;11.77;;;6.93;;
1106;SDS011;540;49.448;8.612;2023-08-17T06:27:44;10.60;;;7.38;;
1106;SDS011;540;49.448;8.612;2023-08-17T06:30:15;10.63;;;6.82;;
1106;SDS011;540;49.448;8.612;2023-08-17T06:32:43;10.80;;;6.68;;
1106;SDS011;540;49.448;8.612;2023-08-17T06:35:11;12.38;;;8.35;;
1106;SDS011;540;49.448;8.612;2023-08-17T06:37:39;10.88;;;6.63;;
1106;SDS011;540;49.448;8.612;2023-08-17T06:40:07;9.75;;;6.10;;
1106;SDS011;540;49.448;8.612;2023-08-17T06:42:36;9.88;;;6.05;;
1106;SDS011;540;49.448;8.612;2023-08-17T06:45:04;10.48;;;6.82;;
1106;SDS011;540;49.448;8.612;2023-08-17T06:47:34;11.38;;;8.00;;
1106;SDS011;540;49.448;8.612;2023-08-17T06:50:02;12.77;;;7.88;;
1106;SDS011;540;49.448;8.612;2023-08-17T06:52:30;12.23;;;6.97;;
1106;SDS011;540;49.448;8.612;2023-08-17T06:55:00;12.27;;;6.68;;
1106;SDS011;540;49.448;8.612;2023-08-17T06:57:28;12.55;;;7.32;;
1106;SDS011;540;49.448;8.612;2023-08-17T06:59:56;10.73;;;6.78;;
1106;SDS011;540;49.448;8.612;2023-08-17T07:02:25;11.50;;;7.43;;
1106;SDS011;540;49.448;8.612;2023-08-17T07:05:14;9.93;;;6.57;;
1106;SDS011;540;49.448;8.612;2023-08-17T07:07:42;12.63;;;7.25;;
1106;SDS011;540;49.448;8.612;2023-08-17T07:10:10;13.43;;;7.30;;
1106;SDS011;540;49.448;8.612;2023-08-17T07:12:38;11.25;;;6.55;;
1106;SDS011;540;49.448;8.612;2023-08-17T07:15:07;10.20;;;6.38;;
1106;SDS011;540;49.448;8.612;2023-08-17T07:17:35;14.13;;;8.02;;
1106;SDS011;540;49.448;8.612;2023-08-17T07:20:06;13.15;;;7.50;;
1106;SDS011;540;49.448;8.612;2023-08-17T07:22:40;19.17;;;10.45;;
1106;SDS011;540;49.448;8.612;2023-08-17T07:25:07;11.95;;;7.57;;
1106;SDS011;540;49.448;8.612;2023-08-17T07:27:35;13.27;;;7.57;;
1106;SDS011;540;49.448;8.612;2023-08-17T07:30:04;15.38;;;7.25;;
1106;SDS011;540;49.448;8.612;2023-08-17T07:32:33;15.10;;;9.90;;
1106;SDS011;540;49.448;8.612;2023-08-17T07:35:01;19.33;;;10.82;;
1106;SDS011;540;49.448;8.612;2023-08-17T07:37:30;23.00;;;14.88;;
1106;SDS011;540;49.448;8.612;2023-08-17T07:40:01;14.93;;;10.40;;
1106;SDS011;540;49.448;8.612;2023-08-17T07:42:30;13.18;;;9.40;;
1106;SDS011;540;49.448;8.612;2023-08-17T07:44:58;23.65;;;11.07;;
1106;SDS011;540;49.448;8.612;2023-08-17T07:47:27;13.05;;;8.82;;
1106;SDS011;540;49.448;8.612;2023-08-17T07:49:55;11.57;;;7.82;;
1106;SDS011;540;49.448;8.612;2023-08-17T07:52:24;14.15;;;9.30;;
1106;SDS011;540;49.448;8.612;2023-08-17T07:54:52;12.70;;;8.07;;
1106;SDS011;540;49.448;8.612;2023-08-17T07:57:21;10.75;;;7.05;;
1106;SDS011;540;49.448;8.612;2023-08-17T07:59:49;12.25;;;6.97;;
1106;SDS011;540;49.448;8.612;2023-08-17T08:02:17;9.80;;;5.85;;
1106;SDS011;540;49.448;8.612;2023-08-17T08:04:47;10.15;;;6.25;;
1106;SDS011;540;49.448;8.612;2023-08-17T08:07:16;8.40;;;4.90;;
1106;SDS011;540;49.448;8.612;2023-08-17T08:09:45;9.75;;;4.63;;
1106;SDS011;540;49.448;8.612;2023-08-17T08:12:15;7.20;;;4.63;;
1106;SDS011;540;49.448;8.612;2023-08-17T08:14:45;8.50;;;4.40;;
1106;SDS011;540;49.448;8.612;2023-08-17T08:17:15;7.07;;;4.72;;
1106;SDS011;540;49.448;8.612;2023-08-17T08:19:43;5.32;;;3.88;;
1106;SDS011;540;49.448;8.612;2023-08-17T08:22:13;7.53;;;4.28;;
1106;SDS011;540;49.448;8.612;2023-08-17T08:24:41;7.57;;;4.57;;
1106;SDS011;540;49.448;8.612;2023-08-17T08:27:11;6.97;;;4.05;;
1106;SDS011;540;49.448;8.612;2023-08-17T08:29:42;5.78;;;4.00;;
1106;SDS011;540;49.448;8.612;2023-08-17T08:32:12;4.28;;;3.28;;
1106;SDS011;540;49.448;8.612;2023-08-17T08:34:41;8.40;;;4.00;;
1106;SDS011;540;49.448;8.612;2023-08-17T08:37:09;6.85;;;4.03;;
1106;SDS011;540;49.448;8.612;2023-08-17T08:39:47;6.53;;;2.90;;
1106;SDS011;540;49.448;8.612;2023-08-17T08:42:16;5.72;;;3.50;;
1106;SDS011;540;49.448;8.612;2023-08-17T08:44:44;9.32;;;3.75;;
1106;SDS011;540;49.448;8.612;2023-08-17T08:47:14;5.35;;;3.17;;
1106;SDS011;540;49.448;8.612;2023-08-17T08:49:45;5.38;;;4.00;;
1106;SDS011;540;49.448;8.612;2023-08-17T08:52:23;4.85;;;3.10;;
1106;SDS011;540;49.448;8.612;2023-08-17T08:55:03;5.32;;;3.42;;
1106;SDS011;540;49.448;8.612;2023-08-17T08:57:37;4.75;;;3.10;;
1106;SDS011;540;49.448;8.612;2023-08-17T09:00:07;3.80;;;3.10;;
1106;SDS011;540;49.448;8.612;2023-08-17T09:02:37;3.20;;;2.90;;
1106;SDS011;540;49.448;8.612;2023-08-17T09:05:06;7.65;;;2.63;;
1106;SDS011;540;49.448;8.612;2023-08-17T09:07:36;5.47;;;2.65;;
1106;SDS011;540;49.448;8.612;2023-08-17T09:10:05;3.50;;;2.97;;
1106;SDS011;540;49.448;8.612;2023-08-17T09:12:33;4.07;;;2.80;;
1106;SDS011;540;49.448;8.612;2023-08-17T09:15:06;4.32;;;2.58;;
1106;SDS011;540;49.448;8.612;2023-08-17T09:17:36;3.92;;;2.60;;
1106;SDS011;540;49.448;8.612;2023-08-17T09:20:05;4.82;;;2.60;;
1106;SDS011;540;49.448;8.612;2023-08-17T09:22:38;2.70;;;2.50;;
1106;SDS011;540;49.448;8.612;2023-08-17T09:25:08;3.42;;;2.90;;
1106;SDS011;540;49.448;8.612;2023-08-17T09:27:36;4.93;;;2.60;;
1106;SDS011;540;49.448;8.612;2023-08-17T09:30:05;3.30;;;2.83;;
1106;SDS011;540;49.448;8.612;2023-08-17T09:32:34;3.33;;;2.50;;
1106;SDS011;540;49.448;8.612;2023-08-17T09:35:04;2.70;;;2.50;;
1106;SDS011;540;49.448;8.612;2023-08-17T09:37:33;2.65;;;2.45;;
1106;SDS011;540;49.448;8.612;2023-08-17T09:40:01;3.58;;;2.40;;
1106;SDS011;540;49.448;8.612;2023-08-17T09:42:29;4.07;;;3.03;;
1106;SDS011;540;49.448;8.612;2023-08-17T09:45:01;2.60;;;2.40;;
1106;SDS011;540;49.448;8.612;2023-08-17T09:47:30;3.72;;;3.10;;
1106;SDS011;540;49.448;8.612;2023-08-17T09:49:58;4.82;;;2.60;;
1106;SDS011;540;49.448;8.612;2023-08-17T09:52:27;3.15;;;2.75;;
1106;SDS011;540;49.448;8.612;2023-08-17T09:54:55;4.55;;;2.60;;
1106;SDS011;540;49.448;8.612;2023-08-17T09:57:26;5.10;;;3.03;;
1106;SDS011;540;49.448;8.612;2023-08-17T09:59:56;3.90;;;2.95;;
1106;SDS011;540;49.448;8.612;2023-08-17T10:02:24;3.97;;;2.60;;
1106;SDS011;540;49.448;8.612;2023-08-17T10:04:53;4.00;;;3.13;;
1106;SDS011;540;49.448;8.612;2023-08-17T10:07:28;5.10;;;3.20;;
1106;SDS011;540;49.448;8.612;2023-08-17T10:10:02;2.90;;;2.60;;
1106;SDS011;540;49.448;8.612;2023-08-17T10:12:34;5.55;;;2.60;;
1106;SDS011;540;49.448;8.612;2023-08-17T10:15:06;4.22;;;3.22;;
1106;SDS011;540;49.448;8.612;2023-08-17T10:17:39;4.10;;;3.70;;
1106;SDS011;540;49.448;8.612;2023-08-17T10:20:22;5.03;;;3.10;;
1106;SDS011;540;49.448;8.612;2023-08-17T10:22:54;3.95;;;3.55;;
1106;SDS011;540;49.448;8.612;2023-08-17T10:25:27;5.30;;;3.65;;
1106;SDS011;540;49.448;8.612;2023-08-17T10:27:56;5.63;;;3.03;;
1106;SDS011;540;49.448;8.612;2023-08-17T10:30:26;5.55;;;3.20;;
1106;SDS011;540;49.448;8.612;2023-08-17T10:32:54;3.38;;;2.95;;
1106;SDS011;540;49.448;8.612;2023-08-17T10:35:23;4.85;;;3.28;;
1106;SDS011;540;49.448;8.612;2023-08-17T10:37:52;6.53;;;3.83;;
1106;SDS011;540;49.448;8.612;2023-08-17T10:40:25;5.55;;;3.45;;
1106;SDS011;540;49.448;8.612;2023-08-17T10:42:54;3.45;;;3.10;;
1106;SDS011;540;49.448;8.612;2023-08-17T10:45:26;5.05;;;3.20;;
1106;SDS011;540;49.448;8.612;2023-08-17T10:48:00;3.70;;;3.40;;
1106;SDS011;540;49.448;8.612;2023-08-17T10:51:05;3.28;;;3.03;;
1106;SDS011;540;49.448;8.612;2023-08-17T10:53:37;4.93;;;3.78;;
1106;SDS011;540;49.448;8.612;2023-08-17T10:56:13;3.33;;;2.80;;
1106;SDS011;540;49.448;8.612;2023-08-17T10:58:43;4.03;;;3.00;;
1106;SDS011;540;49.448;8.612;2023-08-17T11:01:11;3.83;;;3.10;;
1106;SDS011;540;49.448;8.612;2023-08-17T11:03:41;6.70;;;3.25;;
1106;SDS011;540;49.448;8.612;2023-08-17T11:06:15;6.55;;;4.65;;
1106;SDS011;540;49.448;8.612;2023-08-17T11:08:52;3.00;;;2.78;;
1106;SDS011;540;49.448;8.612;2023-08-17T11:11:22;3.75;;;3.03;;
1106;SDS011;540;49.448;8.612;2023-08-17T11:13:52;3.45;;;2.92;;
1106;SDS011;540;49.448;8.612;2023-08-17T11:16:23;6.38;;;3.72;;
1106;SDS011;540;49.448;8.612;2023-08-17T11:18:54;4.03;;;3.47;;
1106;SDS011;540;49.448;8.612;2023-08-17T11:21:24;3.80;;;3.30;;
1106;SDS011;540;49.448;8.612;2023-08-17T11:23:53;3.65;;;3.13;;
1106;SDS011;540;49.448;8.612;2023-08-17T11:26:23;4.13;;;3.17;;
1106;SDS011;540;49.448;8.612;2023-08-17T11:28:51;4.47;;;3.08;;
1106;SDS011;540;49.448;8.612;2023-08-17T11:31:19;4.88;;;3.25;;
1106;SDS011;540;49.448;8.612;2023-08-17T11:33:47;4.10;;;3.25;;
1106;SDS011;540;49.448;8.612;2023-08-17T11:36:20;3.47;;;2.65;;
1106;SDS011;540;49.448;8.612;2023-08-17T11:38:49;4.03;;;3.60;;
1106;SDS011;540;49.448;8.612;2023-08-17T11:41:18;3.47;;;3.17;;
1106;SDS011;540;49.448;8.612;2023-08-17T11:43:46;3.55;;;3.25;;
1106;SDS011;540;49.448;8.612;2023-08-17T11:46:14;4.05;;;2.97;;
1106;SDS011;540;49.448;8.612;2023-08-17T11:48:43;5.22;;;3.08;;
1106;SDS011;540;49.448;8.612;2023-08-17T11:51:11;5.43;;;3.17;;
1106;SDS011;540;49.448;8.612;2023-08-17T11:53:39;4.45;;;3.20;;
1106;SDS011;540;49.448;8.612;2023-08-17T11:56:07;4.80;;;2.85;;
1106;SDS011;540;49.448;8.612;2023-08-17T11:58:42;3.90;;;2.90;;
1106;SDS011;540;49.448;8.612;2023-08-17T12:01:10;3.10;;;2.80;;
1106;SDS011;540;49.448;8.612;2023-08-17T12:03:42;3.22;;;3.00;;
1106;SDS011;540;49.448;8.612;2023-08-17T12:06:10;4.82;;;3.10;;
1106;SDS011;540;49.448;8.612;2023-08-17T12:08:41;3.90;;;3.53;;
1106;SDS011;540;49.448;8.612;2023-08-17T12:11:13;5.25;;;3.10;;
1106;SDS011;540;49.448;8.612;2023-08-17T12:13:46;3.22;;;2.92;;
1106;SDS011;540;49.448;8.612;2023-08-17T12:16:16;3.42;;;3.08;;
1106;SDS011;540;49.448;8.612;2023-08-17T12:18:44;4.38;;;3.05;;
1106;SDS011;540;49.448;8.612;2023-08-17T12:21:12;6.65;;;3.10;;
1106;SDS011;540;49.448;8.612;2023-08-17T12:23:40;3.33;;;2.95;;
1106;SDS011;540;49.448;8.612;2023-08-17T12:26:08;3.28;;;2.97;;
1106;SDS011;540;49.448;8.612;2023-08-17T12:28:36;4.78;;;3.28;;
1106;SDS011;540;49.448;8.612;2023-08-17T12:31:08;3.83;;;3.10;;
1106;SDS011;540;49.448;8.612;2023-08-17T12:33:37;4.53;;;3.13;;
1106;SDS011;540;49.448;8.612;2023-08-17T12:36:06;5.60;;;3.55;;
1106;SDS011;540;49.448;8.612;2023-08-17T12:38:33;8.48;;;3.70;;
1106;SDS011;540;49.448;8.612;2023-08-17T12:41:04;7.80;;;3.78;;
1106;SDS011;540;49.448;8.612;2023-08-17T12:43:32;3.75;;;3.05;;
1106;SDS011;540;49.448;8.612;2023-08-17T12:46:00;7.97;;;4.53;;
1106;SDS011;540;49.448;8.612;2023-08-17T12:48:29;9.55;;;4.05;;
1106;SDS011;540;49.448;8.612;2023-08-17T12:51:01;7.15;;;4.28;;
1106;SDS011;540;49.448;8.612;2023-08-17T12:53:30;6.45;;;3.92;;
1106;SDS011;540;49.448;8.612;2023-08-17T12:55:58;6.72;;;3.92;;
1106;SDS011;540;49.448;8.612;2023-08-17T12:58:26;6.43;;;4.03;;
1106;SDS011;540;49.448;8.612;2023-08-17T13:00:55;7.72;;;4.22;;
1106;SDS011;540;49.448;8.612;2023-08-17T13:03:23;6.78;;;4.22;;
1106;SDS011;540;49.448;8.612;2023-08-17T13:05:53;6.35;;;3.45;;
1106;SDS011;540;49.448;8.612;2023-08-17T13:08:21;7.18;;;3.78;;
1106;SDS011;540;49.448;8.612;2023-08-17T13:10:49;6.53;;;4.10;;
1106;SDS011;540;49.448;8.612;2023-08-17T13:13:17;4.93;;;3.13;;
1106;SDS011;540;49.448;8.612;2023-08-17T13:15:45;5.07;;;2.97;;
1106;SDS011;540;49.448;8.612;2023-08-17T13:18:13;4.13;;;3.03;;
1106;SDS011;540;49.448;8.612;2023-08-17T13:20:42;2.92;;;2.63;;
1106;SDS011;540;49.448;8.612;2023-08-17T13:23:11;3.53;;;2.90;;
1106;SDS011;540;49.448;8.612;2023-08-17T13:25:39;3.53;;;3.03;;
1106;SDS011;540;49.448;8.612;2023-08-17T13:28:07;4.75;;;3.72;;
1106;SDS011;540;49.448;8.612;2023-08-17T13:30:35;3.08;;;2.78;;
1106;SDS011;540;49.448;8.612;2023-08-17T13:33:06;3.30;;;3.00;;
1106;SDS011;540;49.448;8.612;2023-08-17T13:35:34;5.53;;;3.20;;
1106;SDS011;540;49.448;8.612;2023-08-17T13:38:02;3.95;;;3.03;;
1106;SDS011;540;49.448;8.612;2023-08-17T13:40:32;3.40;;;3.10;;
1106;SDS011;540;49.448;8.612;2023-08-17T13:43:02;3.55;;;3.25;;
1106;SDS011;540;49.448;8.612;2023-08-17T13:45:31;4.95;;;3.03;;
1106;SDS011;540;49.448;8.612;2023-08-17T13:48:00;4.30;;;3.40;;
1106;SDS011;540;49.448;8.612;2023-08-17T13:50:29;4.20;;;3.80;;
1106;SDS011;540;49.448;8.612;2023-08-17T13:52:57;5.32;;;3.15;;
1106;SDS011;540;49.448;8.612;2023-08-17T13:55:26;3.88;;;2.80;;
1106;SDS011;540;49.448;8.612;2023-08-17T13:57:57;3.90;;;3.08;;
1106;SDS011;540;49.448;8.612;2023-08-17T14:00:25;3.65;;;3.05;;
1106;SDS011;540;49.448;8.612;2023-08-17T14:02:53;5.25;;;3.30;;
1106;SDS011;540;49.448;8.612;2023-08-17T14:05:21;4.30;;;3.53;;
1106;SDS011;540;49.448;8.612;2023-08-17T14:07:49;3.70;;;3.17;;
1106;SDS011;540;49.448;8.612;2023-08-17T14:10:17;5.78;;;3.17;;
1106;SDS011;540;49.448;8.612;2023-08-17T14:13:05;3.55;;;3.08;;
1106;SDS011;540;49.448;8.612;2023-08-17T14:15:33;5.72;;;3.63;;
1106;SDS011;540;49.448;8.612;2023-08-17T14:18:01;4.70;;;3.45;;
1106;SDS011;540;49.448;8.612;2023-08-17T14:20:30;4.60;;;3.40;;
1106;SDS011;540;49.448;8.612;2023-08-17T14:22:58;6.80;;;3.72;;
1106;SDS011;540;49.448;8.612;2023-08-17T14:25:25;4.85;;;3.75;;
1106;SDS011;540;49.448;8.612;2023-08-17T14:27:54;4.78;;;3.67;;
1106;SDS011;540;49.448;8.612;2023-08-17T14:30:23;4.43;;;3.53;;
1106;SDS011;540;49.448;8.612;2023-08-17T14:32:52;3.45;;;3.05;;
1106;SDS011;540;49.448;8.612;2023-08-17T14:35:26;3.50;;;3.20;;
1106;SDS011;540;49.448;8.612;2023-08-17T14:37:54;3.47;;;3.03;;
1106;SDS011;540;49.448;8.612;2023-08-17T14:40:25;5.13;;;3.50;;
1106;SDS011;540;49.448;8.612;2023-08-17T14:42:53;3.92;;;3.20;;
1106;SDS011;540;49.448;8.612;2023-08-17T14:45:21;7.90;;;3.42;;
1106;SDS011;540;49.448;8.612;2023-08-17T14:47:50;3.72;;;2.75;;
1106;SDS011;540;49.448;8.612;2023-08-17T14:50:18;3.53;;;2.92;;
1106;SDS011;540;49.448;8.612;2023-08-17T14:52:46;3.42;;;2.35;;
1106;SDS011;540;49.448;8.612;2023-08-17T14:55:14;3.95;;;3.55;;
1106;SDS011;540;49.448;8.612;2023-08-17T14:57:42;4.32;;;3.13;;
1106;SDS011;540;49.448;8.612;2023-08-17T15:00:10;6.40;;;3.42;;
1106;SDS011;540;49.448;8.612;2023-08-17T15:02:42;8.00;;;3.25;;
1106;SDS011;540;49.448;8.612;2023-08-17T15:05:11;3.60;;;3.30;;
1106;SDS011;540;49.448;8.612;2023-08-17T15:07:39;4.43;;;3.15;;
1106;SDS011;540;49.448;8.612;2023-08-17T15:10:07;5.40;;;3.40;;
1106;SDS011;540;49.448;8.612;2023-08-17T15:12:36;6.93;;;3.17;;
1106;SDS011;540;49.448;8.612;2023-08-17T15:15:04;5.05;;;3.28;;
1106;SDS011;540;49.448;8.612;2023-08-17T15:17:32;6.32;;;3.50;;
1106;SDS011;540;49.448;8.612;2023-08-17T15:20:00;6.07;;;3.30;;
1106;SDS011;540;49.448;8.612;2023-08-17T15:22:30;3.58;;;2.90;;
1106;SDS011;540;49.448;8.612;2023-08-17T15:24:58;3.88;;;2.97;;
1106;SDS011;540;49.448;8.612;2023-08-17T15:27:26;3.20;;;2.90;;
1106;SDS011;540;49.448;8.612;2023-08-17T15:29:55;2.97;;;2.67;;
1106;SDS011;540;49.448;8.612;2023-08-17T15:32:22;4.32;;;2.92;;
1106;SDS011;540;49.448;8.612;2023-08-17T15:34:53;3.20;;;2.83;;
1106;SDS011;540;49.448;8.612;2023-08-17T15:37:22;3.88;;;2.88;;
1106;SDS011;540;49.448;8.612;2023-08-17T15:39:52;3.15;;;2.58;;